Time;durP1;ratioP1;P1;durP2;ratioP2;P2;SDS_P1;SDS_P2;PMS_P1;PMS_P2;Temp;Humidity;BMP_temperature;BMP_pressure;BME280_temperature;BME280_humidity;BME280_pressure;Samples;Min_cycle;Max_cycle;Signal;HPM_P1;HPM_P2
2022/07/09 00:02:21;;;;;;;12.40;6.70;;;;;;;16.02;84.44;102717.94;5049654;28;20028;-86
2022/07/09 00:04:47;;;;;;;12.57;7.30;;;;;;;16.01;85.15;102721.72;5049917;28;20044;-86
2022/07/09 00:07:12;;;;;;;14.40;7.47;;;;;;;15.94;85.39;102717.56;5050070;28;20396;-86
2022/07/09 00:09:37;;;;;;;11.60;7.47;;;;;;;15.91;86.03;102724.28;5049065;28;20442;-86
2022/07/09 00:12:03;;;;;;;11.83;7.10;;;;;;;15.88;86.45;102730.19;5049098;28;20025;-86
2022/07/09 00:14:29;;;;;;;22.55;8.02;;;;;;;15.82;85.69;102714.91;5049722;28;20472;-86
2022/07/09 00:16:57;;;;;;;11.55;7.63;;;;;;;15.82;86.32;102720.31;5049557;28;20032;-86
2022/07/09 00:19:25;;;;;;;12.55;7.70;;;;;;;15.62;87.10;102699.22;5049584;28;20423;-86
2022/07/09 00:21:50;;;;;;;10.40;7.53;;;;;;;15.74;86.62;102726.97;5048743;28;20074;-85
2022/07/09 00:24:16;;;;;;;11.63;7.40;;;;;;;15.69;86.75;102726.91;5048255;28;20438;-86
2022/07/09 00:26:41;;;;;;;12.47;7.60;;;;;;;15.63;86.82;102717.88;5049375;28;20023;-86
2022/07/09 00:29:06;;;;;;;10.83;7.77;;;;;;;15.65;87.70;102721.16;5049246;28;20029;-86
2022/07/09 00:31:32;;;;;;;9.90;7.53;;;;;;;15.60;87.50;102724.59;5048705;28;20064;-86
2022/07/09 00:33:57;;;;;;;10.93;7.73;;;;;;;15.56;88.26;102725.34;5049530;28;20025;-86
2022/07/09 00:36:22;;;;;;;13.80;7.90;;;;;;;15.48;88.62;102718.47;5049483;28;20472;-86
2022/07/09 00:38:47;;;;;;;13.57;8.60;;;;;;;15.47;88.82;102713.28;5049324;28;20485;-86
2022/07/09 00:41:13;;;;;;;11.97;8.87;;;;;;;15.44;88.64;102711.91;5048461;28;20029;-85
2022/07/09 00:43:48;;;;;;;10.67;7.90;;;;;;;15.44;88.06;102711.91;5049496;28;20025;-86
2022/07/09 00:46:14;;;;;;;13.38;7.88;;;;;;;15.42;88.60;102714.03;5049564;28;20049;-86
2022/07/09 00:48:40;;;;;;;11.85;8.32;;;;;;;15.37;88.61;102714.78;5049080;28;20051;-85
2022/07/09 00:51:05;;;;;;;12.90;8.27;;;;;;;15.39;88.68;102718.03;5048548;28;20495;-85
2022/07/09 00:53:31;;;;;;;14.60;8.60;;;;;;;15.27;89.17;102712.72;5049855;28;20017;-86
2022/07/09 00:55:56;;;;;;;13.55;9.25;;;;;;;15.28;88.96;102718.91;5049750;28;20029;-86
2022/07/09 00:58:22;;;;;;;10.47;8.80;;;;;;;15.25;90.28;102725.63;5048802;28;20037;-86
2022/07/09 01:00:48;;;;;;;16.10;9.00;;;;;;;15.29;90.45;102724.09;5048954;28;20508;-85
2022/07/09 01:03:13;;;;;;;10.43;8.83;;;;;;;15.24;89.70;102721.28;5032816;28;20048;-86
2022/07/09 01:05:38;;;;;;;14.75;9.88;;;;;;;15.23;90.81;102722.34;5052922;28;20024;-85
2022/07/09 01:08:06;;;;;;;13.07;9.43;;;;;;;15.17;91.60;102706.31;5052729;28;20434;-85
2022/07/09 01:10:33;;;;;;;12.25;9.13;;;;;;;15.21;90.55;102729.88;5051978;28;20116;-86
2022/07/09 01:12:59;;;;;;;14.50;9.33;;;;;;;15.08;91.32;102704.00;5053451;28;20096;-86
2022/07/09 01:15:24;;;;;;;15.73;9.27;;;;;;;15.16;92.37;102718.16;5034304;28;20286;-86
2022/07/09 01:17:52;;;;;;;14.63;9.38;;;;;;;15.08;91.41;102705.88;5052949;28;20021;-85
2022/07/09 01:20:35;;;;;;;17.08;9.80;;;;;;;15.06;91.27;102706.13;5052091;28;20449;-85
2022/07/09 01:23:00;;;;;;;18.65;9.05;;;;;;;15.02;92.07;102702.28;5052816;28;20630;-85
2022/07/09 01:25:39;;;;;;;13.57;9.53;;;;;;;14.99;91.92;102702.75;5052248;28;20119;-86
2022/07/09 01:28:07;;;;;;;12.27;9.82;;;;;;;15.01;91.08;102707.91;5052910;28;20039;-86
2022/07/09 01:30:34;;;;;;;15.15;9.23;;;;;;;14.92;91.14;102691.28;5052043;28;20151;-86
2022/07/09 01:33:00;;;;;;;11.67;8.77;;;;;;;14.85;92.51;102691.44;5052442;28;20387;-85
2022/07/09 01:35:25;;;;;;;14.80;9.63;;;;;;;14.86;92.79;102695.75;5051947;28;20288;-84
2022/07/09 01:37:51;;;;;;;13.75;9.40;;;;;;;14.83;92.69;102693.53;5052268;28;20239;-85
2022/07/09 01:40:17;;;;;;;13.07;10.10;;;;;;;14.77;91.89;102679.13;5052273;28;20052;-85
2022/07/09 01:42:42;;;;;;;16.23;9.98;;;;;;;14.66;92.10;102672.69;5051868;28;20021;-86
2022/07/09 01:45:11;;;;;;;15.33;9.77;;;;;;;14.72;92.54;102683.63;5052475;28;20032;-85
2022/07/09 01:47:37;;;;;;;16.77;10.32;;;;;;;14.61;92.27;102675.28;5051974;28;20070;-85
2022/07/09 01:50:02;;;;;;;15.73;10.53;;;;;;;14.63;92.98;102680.47;5051018;28;20388;-85
2022/07/09 01:52:29;;;;;;;16.38;10.70;;;;;;;14.61;92.99;102686.06;5051467;28;20051;-85
2022/07/09 01:54:54;;;;;;;15.13;10.52;;;;;;;14.52;93.24;102668.66;5051852;28;20036;-85
2022/07/09 01:57:23;;;;;;;15.83;11.47;;;;;;;14.53;93.49;102678.38;5034046;28;20025;-86
2022/07/09 01:59:48;;;;;;;16.17;10.55;;;;;;;14.51;93.17;102670.53;5051546;28;20090;-85
2022/07/09 02:02:13;;;;;;;16.63;11.43;;;;;;;14.31;93.15;102649.34;5051234;28;20045;-85
2022/07/09 02:04:39;;;;;;;15.20;11.43;;;;;;;14.45;93.34;102670.66;5051434;28;20372;-85
2022/07/09 02:07:04;;;;;;;17.53;11.03;;;;;;;14.35;93.23;102658.63;5051606;28;20093;-85
2022/07/09 02:09:29;;;;;;;15.32;11.55;;;;;;;14.38;94.35;102671.63;5051211;28;20492;-85
2022/07/09 02:11:55;;;;;;;17.03;11.97;;;;;;;14.32;95.41;102672.56;5050545;28;20086;-85
2022/07/09 02:14:21;;;;;;;17.42;12.80;;;;;;;14.26;95.59;102662.72;5050732;28;20028;-85
2022/07/09 02:16:47;;;;;;;15.63;10.90;;;;;;;14.28;94.69;102670.59;5051864;28;20155;-85
2022/07/09 02:19:12;;;;;;;12.57;11.27;;;;;;;14.28;94.75;102670.59;5050746;28;20033;-86
2022/07/09 02:21:37;;;;;;;17.37;12.47;;;;;;;14.20;95.38;102669.09;5050049;28;20060;-85
2022/07/09 02:24:03;;;;;;;18.27;11.33;;;;;;;14.17;95.03;102670.34;5050654;28;20025;-86
2022/07/09 02:26:29;;;;;;;18.90;11.77;;;;;;;14.13;94.96;102657.59;5048803;28;20522;-86
2022/07/09 02:28:58;;;;;;;16.27;11.52;;;;;;;14.00;95.68;102650.56;5051189;28;20033;-85
2022/07/09 02:31:23;;;;;;;14.00;11.55;;;;;;;14.05;94.99;102664.19;5049185;28;20116;-85
2022/07/09 02:33:48;;;;;;;19.87;12.83;;;;;;;13.97;96.22;102649.19;5051251;28;20096;-85
2022/07/09 02:36:14;;;;;;;16.20;12.77;;;;;;;14.01;96.06;102663.84;5051143;28;20375;-85
2022/07/09 02:38:39;;;;;;;23.10;12.53;;;;;;;13.98;95.84;102660.78;5050651;28;20732;-86
2022/07/09 02:41:04;;;;;;;19.97;12.03;;;;;;;13.99;95.52;102657.03;5050363;28;20025;-85
2022/07/09 02:43:30;;;;;;;19.77;12.73;;;;;;;13.89;96.08;102653.06;5050720;28;20025;-85
2022/07/09 02:45:55;;;;;;;18.53;12.50;;;;;;;13.88;96.39;102642.50;5051134;28;20078;-85
2022/07/09 02:48:25;;;;;;;19.70;13.43;;;;;;;13.76;97.44;102637.94;5050153;28;20040;-85
2022/07/09 02:50:51;;;;;;;19.52;12.27;;;;;;;13.84;97.62;102647.56;5049676;28;20037;-85
2022/07/09 02:53:16;;;;;;;20.43;12.93;;;;;;;13.80;97.29;102637.50;5050360;28;20025;-85
2022/07/09 02:55:41;;;;;;;19.80;12.93;;;;;;;13.77;97.42;102647.69;5050567;28;20516;-86
2022/07/09 02:58:06;;;;;;;21.90;13.03;;;;;;;13.75;98.03;102640.91;5050652;28;20031;-85
2022/07/09 03:00:32;;;;;;;19.57;12.33;;;;;;;13.71;97.22;102627.06;5049123;28;20299;-85
2022/07/09 03:02:57;;;;;;;16.13;12.57;;;;;;;13.72;97.08;102627.88;5050401;28;20028;-85
2022/07/09 03:05:22;;;;;;;18.50;12.97;;;;;;;13.71;97.35;102637.81;5050193;28;20029;-85
2022/07/09 03:07:48;;;;;;;22.27;13.00;;;;;;;13.68;97.87;102641.00;5050985;28;20033;-85
2022/07/09 03:10:13;;;;;;;20.92;13.43;;;;;;;13.66;98.55;102635.03;5049796;28;20387;-85
2022/07/09 03:12:40;;;;;;;17.83;13.00;;;;;;;13.66;97.45;102631.50;5050161;28;20459;-85
2022/07/09 03:15:06;;;;;;;18.80;12.93;;;;;;;13.65;98.08;102641.47;5050465;28;20025;-86
2022/07/09 03:17:32;;;;;;;24.33;13.17;;;;;;;13.61;98.36;102633.03;5049552;28;20481;-85
2022/07/09 03:19:57;;;;;;;18.40;12.37;;;;;;;13.66;98.56;102643.13;5049940;28;20372;-86
2022/07/09 03:22:22;;;;;;;25.33;12.77;;;;;;;13.65;97.95;102641.47;5049442;28;20392;-85
2022/07/09 03:24:47;;;;;;;18.47;12.63;;;;;;;13.61;97.06;102643.00;5050340;28;20126;-86
2022/07/09 03:27:13;;;;;;;18.47;12.47;;;;;;;13.54;97.30;102631.50;5050389;28;20025;-85
2022/07/09 03:29:41;;;;;;;20.63;13.03;;;;;;;13.60;97.37;102638.66;5049592;28;20107;-85
2022/07/09 03:32:07;;;;;;;18.50;12.38;;;;;;;13.57;96.90;102633.72;5048308;28;20036;-85
2022/07/09 03:34:32;;;;;;;19.00;12.52;;;;;;;13.59;97.49;102637.00;5050014;28;20021;-85
2022/07/09 03:36:58;;;;;;;17.67;12.30;;;;;;;13.53;97.18;102636.09;5050380;28;20070;-85
2022/07/09 03:39:24;;;;;;;17.10;13.05;;;;;;;13.48;97.18;102631.41;5049474;28;20021;-85
2022/07/09 03:41:49;;;;;;;15.13;12.70;;;;;;;13.52;96.55;102644.38;5049252;28;20025;-85
2022/07/09 03:44:14;;;;;;;19.30;13.70;;;;;;;13.48;97.64;102644.88;5050135;28;20511;-86
2022/07/09 03:46:40;;;;;;;19.23;13.13;;;;;;;13.44;96.99;102627.53;5047128;28;20029;-86
2022/07/09 03:49:05;;;;;;;17.87;13.27;;;;;;;13.43;97.26;102631.28;5047563;28;20036;-86
2022/07/09 03:51:30;;;;;;;25.88;15.68;;;;;;;13.48;98.43;102636.78;5048988;28;20017;-86
2022/07/09 03:53:56;;;;;;;19.33;15.10;;;;;;;13.37;97.42;102626.78;5049871;28;20025;-86
2022/07/09 03:56:21;;;;;;;23.80;17.47;;;;;;;13.44;98.65;102635.59;5050109;28;20021;-86
2022/07/09 03:58:46;;;;;;;26.13;16.93;;;;;;;13.48;98.69;102631.41;5049170;28;20045;-86
2022/07/09 04:01:12;;;;;;;27.40;18.52;;;;;;;13.57;99.28;102631.03;5049443;28;20136;-86
2022/07/09 04:03:37;;;;;;;28.63;18.27;;;;;;;13.69;99.03;102634.56;5048899;28;20074;-86
2022/07/09 04:06:03;;;;;;;32.57;19.67;;;;;;;13.83;99.97;102634.31;5049942;28;20029;-86
2022/07/09 04:08:28;;;;;;;29.17;19.50;;;;;;;13.98;98.72;102647.28;5048686;28;20029;-86
2022/07/09 04:10:54;;;;;;;27.08;18.98;;;;;;;13.98;98.13;102642.75;5049622;28;20114;-86
2022/07/09 04:13:19;;;;;;;33.53;20.27;;;;;;;13.99;99.05;102630.91;5049813;28;20039;-86
2022/07/09 04:15:45;;;;;;;29.20;19.43;;;;;;;14.00;97.68;102631.72;5052783;28;20504;-86
2022/07/09 04:18:11;;;;;;;32.78;20.00;;;;;;;14.02;97.72;102630.44;5052766;28;20100;-86
2022/07/09 04:20:36;;;;;;;35.63;20.37;;;;;;;14.04;98.37;102631.03;5060014;28;20116;-85
2022/07/09 04:23:01;;;;;;;32.30;21.37;;;;;;;14.15;98.07;102632.03;5057711;28;20484;-85
2022/07/09 04:25:26;;;;;;;29.98;22.00;;;;;;;14.22;98.04;102624.63;5055410;28;20029;-85
2022/07/09 04:27:52;;;;;;;33.70;21.00;;;;;;;14.33;97.44;102630.25;5047967;28;20025;-85
2022/07/09 04:30:17;;;;;;;30.80;21.13;;;;;;;14.32;96.82;102624.03;5048932;28;20032;-85
2022/07/09 04:32:42;;;;;;;29.10;21.30;;;;;;;14.30;97.62;102615.34;5049119;28;20029;-85
2022/07/09 04:35:08;;;;;;;32.83;21.67;;;;;;;14.30;97.08;102618.06;5049660;28;20051;-85
2022/07/09 04:37:33;;;;;;;35.47;21.47;;;;;;;14.43;97.33;102626.91;5048611;28;20032;-85
2022/07/09 04:39:58;;;;;;;33.28;21.58;;;;;;;14.57;97.82;102628.28;5053542;28;20110;-86
2022/07/09 04:42:24;;;;;;;33.87;22.30;;;;;;;14.73;96.88;102626.72;5052637;28;20704;-88
2022/07/09 04:44:57;;;;;;;36.60;22.00;;;;;;;14.93;96.92;102628.13;5053082;28;20031;-87
2022/07/09 04:47:23;;;;;;;31.08;21.63;;;;;;;15.12;95.73;102631.44;5052792;28;20697;-85
2022/07/09 04:49:48;;;;;;;33.60;21.33;;;;;;;15.30;94.87;102630.38;5053237;28;20028;-84
2022/07/09 04:52:17;;;;;;;35.70;21.23;;;;;;;15.41;93.78;102628.66;5053186;28;20033;-85
2022/07/09 04:54:42;;;;;;;32.45;21.05;;;;;;;15.59;94.90;102622.97;5052701;28;20029;-85
2022/07/09 04:57:08;;;;;;;34.25;21.60;;;;;;;16.66;93.05;102642.72;5052834;28;20472;-83
2022/07/09 04:59:33;;;;;;;29.23;20.70;;;;;;;17.99;86.43;102631.31;5052949;28;20028;-86
2022/07/09 05:01:58;;;;;;;29.83;20.53;;;;;;;19.13;81.60;102636.19;5052706;28;20055;-84
2022/07/09 05:04:24;;;;;;;27.90;18.97;;;;;;;20.18;74.74;102636.50;5052706;28;20490;-85
2022/07/09 05:06:49;;;;;;;26.33;18.67;;;;;;;19.89;74.35;102625.47;5052763;28;20033;-84
2022/07/09 05:09:14;;;;;;;26.17;18.57;;;;;;;19.28;76.13;102630.72;5053392;28;20048;-84
2022/07/09 05:11:39;;;;;;;26.83;19.50;;;;;;;18.74;78.05;102634.78;5050954;28;20025;-85
2022/07/09 05:14:05;;;;;;;30.13;19.23;;;;;;;18.39;79.88;102628.19;5053515;28;20456;-85
2022/07/09 05:16:30;;;;;;;32.53;20.57;;;;;;;18.14;80.70;102619.72;5052138;28;20033;-85
2022/07/09 05:18:55;;;;;;;27.77;20.70;;;;;;;18.03;81.82;102623.44;5052502;28;20071;-85
2022/07/09 05:21:21;;;;;;;34.58;22.23;;;;;;;17.85;83.59;102630.13;5052516;28;20043;-85
2022/07/09 05:23:46;;;;;;;33.97;22.07;;;;;;;17.79;83.93;102621.16;5052444;28;20040;-83
2022/07/09 05:26:12;;;;;;;35.00;22.73;;;;;;;17.74;84.80;102623.00;5052192;28;20029;-84
2022/07/09 05:28:38;;;;;;;36.85;23.77;;;;;;;17.53;86.66;102615.56;5050599;28;20464;-85
2022/07/09 05:31:03;;;;;;;33.63;22.00;;;;;;;17.55;84.94;102615.28;5048115;28;20500;-85
2022/07/09 05:33:28;;;;;;;28.17;20.47;;;;;;;17.64;84.53;102618.31;5051999;28;20291;-83
2022/07/09 05:35:54;;;;;;;35.63;23.43;;;;;;;17.76;86.61;102624.38;5052240;28;20405;-83
2022/07/09 05:38:19;;;;;;;30.67;22.00;;;;;;;17.83;85.16;102624.13;5052051;28;20103;-82
2022/07/09 05:40:44;;;;;;;33.33;22.80;;;;;;;17.88;85.72;102629.59;5051161;28;20109;-82
2022/07/09 05:43:10;;;;;;;31.53;22.50;;;;;;;17.85;84.63;102625.50;5034279;28;20106;-83
2022/07/09 05:45:35;;;;;;;36.45;21.55;;;;;;;17.81;84.64;102618.97;5051860;28;20029;-83
2022/07/09 05:48:00;;;;;;;31.33;21.97;;;;;;;17.80;85.26;102624.66;5051954;28;20029;-83
2022/07/09 05:50:26;;;;;;;37.07;22.90;;;;;;;17.79;85.63;102617.59;5050351;28;20049;-83
2022/07/09 05:52:51;;;;;;;30.27;21.03;;;;;;;17.88;85.01;102623.34;5051676;28;20429;-86
2022/07/09 05:55:16;;;;;;;32.20;21.07;;;;;;;18.01;84.15;102617.47;5051767;28;20049;-82
2022/07/09 05:57:42;;;;;;;36.53;23.90;;;;;;;18.05;84.93;102624.00;5051352;28;20104;-83
2022/07/09 06:00:08;;;;;;;31.43;22.30;;;;;;;18.26;84.33;102622.16;5051632;28;20495;-83
2022/07/09 06:02:33;;;;;;;32.30;21.47;;;;;;;18.50;82.71;102620.91;5051249;28;20083;-84
2022/07/09 06:04:58;;;;;;;30.90;20.13;;;;;;;19.27;80.49;102628.28;5051947;28;20283;-86
2022/07/09 06:07:24;;;;;;;30.37;21.23;;;;;;;19.82;78.70;102623.00;5050645;28;20028;-83
2022/07/09 06:09:50;;;;;;;31.88;22.35;;;;;;;20.27;76.16;102617.66;5051883;28;20025;-87
2022/07/09 06:12:15;;;;;;;30.47;20.43;;;;;;;20.66;74.04;102626.97;5050216;28;20028;-86
2022/07/09 06:14:40;;;;;;;29.93;20.17;;;;;;;20.85;72.50;102616.22;5050389;28;20079;-86
2022/07/09 06:17:05;;;;;;;27.60;18.67;;;;;;;20.98;71.43;102620.22;5052062;28;20033;-86
2022/07/09 06:19:34;;;;;;;27.07;17.60;;;;;;;21.00;71.57;102637.91;5051203;28;20587;-86
2022/07/09 06:22:00;;;;;;;24.10;16.45;;;;;;;20.76;71.54;102637.00;5050965;28;20472;-87
2022/07/09 06:24:26;;;;;;;24.60;17.05;;;;;;;20.61;72.27;102636.00;5051401;28;20095;-85
2022/07/09 06:26:52;;;;;;;28.57;18.83;;;;;;;20.57;72.41;102630.28;5049964;28;20029;-85
2022/07/09 06:29:18;;;;;;;25.35;17.42;;;;;;;20.69;72.33;102638.09;5049771;28;20082;-84
2022/07/09 06:31:43;;;;;;;23.20;17.25;;;;;;;20.75;72.15;102638.06;5060374;28;20163;-84
2022/07/09 06:34:10;;;;;;;26.30;19.27;;;;;;;20.68;73.00;102639.19;5051030;28;20529;-86
2022/07/09 06:36:35;;;;;;;26.20;18.48;;;;;;;20.57;73.44;102641.19;5032370;28;20020;-86
2022/07/09 06:41:45;;;;;;;22.60;17.63;;;;;;;20.45;73.38;102642.63;5051437;28;20120;-85
2022/07/09 06:44:10;;;;;;;25.00;18.93;;;;;;;20.53;73.37;102637.41;5051016;28;20061;-85
2022/07/09 06:46:35;;;;;;;29.27;17.97;;;;;;;20.72;72.71;102636.75;5051373;28;20048;-87
2022/07/09 06:49:01;;;;;;;25.10;17.93;;;;;;;20.86;72.50;102636.94;5050861;28;20017;-87
2022/07/09 06:51:26;;;;;;;24.13;18.67;;;;;;;20.97;71.98;102645.84;5049890;28;20029;-87
2022/07/09 06:53:51;;;;;;;23.27;17.23;;;;;;;21.12;71.84;102642.97;5050303;28;20341;-87
2022/07/09 06:56:16;;;;;;;26.30;18.13;;;;;;;21.23;69.98;102651.88;5050353;28;20029;-89
2022/07/09 06:58:42;;;;;;;24.73;17.00;;;;;;;21.22;69.11;102630.38;5053181;28;20044;-87
2022/07/09 07:01:07;;;;;;;22.67;16.10;;;;;;;21.25;69.36;102638.00;5056873;28;20036;-86
2022/07/09 07:03:35;;;;;;;20.83;15.30;;;;;;;21.39;70.14;102644.38;5043358;28;20130;-86
2022/07/09 07:06:00;;;;;;;25.02;16.75;;;;;;;21.76;68.58;102647.56;5030775;28;20477;-85
2022/07/09 07:08:25;;;;;;;26.30;16.67;;;;;;;22.13;67.25;102635.09;5031216;28;20090;-86
2022/07/09 07:10:51;;;;;;;22.83;16.00;;;;;;;22.37;65.88;102631.53;5040490;28;20029;-86
2022/07/09 07:13:16;;;;;;;21.53;15.87;;;;;;;22.37;66.55;102645.19;5048753;28;20507;-88
2022/07/09 07:15:41;;;;;;;23.40;16.17;;;;;;;22.30;65.85;102644.72;5045792;28;20100;-87
2022/07/09 07:18:06;;;;;;;21.08;15.07;;;;;;;22.35;65.94;102639.19;5048662;28;20399;-89
2022/07/09 07:54:16;;;;;;;20.63;14.13;;;;;;;24.23;60.82;102647.44;5645329;22;20061;-88
2022/07/09 07:56:41;;;;;;;20.25;15.02;;;;;;;24.27;60.50;102648.44;5028590;28;20029;-87
2022/07/09 07:59:07;;;;;;;21.30;15.90;;;;;;;23.93;59.55;102644.19;5027806;28;20526;-87
2022/07/09 08:01:32;;;;;;;20.40;15.97;;;;;;;23.63;59.73;102651.91;5027372;28;20108;-87
2022/07/09 08:03:57;;;;;;;17.50;13.87;;;;;;;23.42;61.41;102651.50;5031189;28;20025;-87
2022/07/09 08:06:23;;;;;;;20.80;14.37;;;;;;;23.28;61.52;102654.19;5028325;28;20029;-88
2022/07/09 08:08:48;;;;;;;17.90;13.65;;;;;;;23.08;61.30;102647.13;5018785;28;20030;-88
2022/07/09 08:11:14;;;;;;;16.57;13.00;;;;;;;22.98;62.36;102639.91;5030526;28;20026;-88
2022/07/09 08:13:40;;;;;;;18.07;14.33;;;;;;;23.08;61.83;102641.66;5027060;28;20070;-88
2022/07/09 08:16:05;;;;;;;19.45;14.43;;;;;;;23.13;61.41;102619.69;5029379;28;20480;-87
2022/07/09 08:18:31;;;;;;;18.93;13.70;;;;;;;23.46;61.04;102625.16;5029894;28;20042;-88
2022/07/09 08:20:56;;;;;;;17.35;12.00;;;;;;;23.92;59.57;102633.56;5015261;28;20399;-88
2022/07/09 08:23:22;;;;;;;18.67;13.13;;;;;;;23.82;58.49;102618.97;5029490;28;20029;-88
2022/07/09 08:25:47;;;;;;;14.47;11.13;;;;;;;24.07;58.72;102616.03;5028651;28;20036;-85
2022/07/09 08:28:12;;;;;;;18.08;14.07;;;;;;;24.45;57.37;102618.47;5029550;28;20447;-86
2022/07/09 08:30:38;;;;;;;17.47;13.10;;;;;;;24.71;57.49;102604.16;5031474;28;20059;-86
2022/07/09 08:33:03;;;;;;;17.87;11.83;;;;;;;24.97;56.79;102607.06;5030638;28;20095;-86
2022/07/09 08:35:28;;;;;;;16.87;13.17;;;;;;;25.19;56.76;102595.25;5029063;28;20435;-86
2022/07/09 08:37:54;;;;;;;14.90;12.47;;;;;;;25.46;54.69;102600.88;5029337;28;20037;-86
2022/07/09 08:40:25;;;;;;;17.55;12.65;;;;;;;25.78;53.47;102599.66;5029299;28;20029;-86
2022/07/09 08:42:51;;;;;;;16.35;12.77;;;;;;;26.10;49.84;102597.63;5030148;28;20033;-86
2022/07/09 08:45:45;;;;;;;19.43;11.93;;;;;;;26.02;51.50;102581.94;5036933;22;20069;-86
2022/07/09 08:48:13;;;;;;;16.97;12.00;;;;;;;25.98;52.35;102594.69;5009514;28;20375;-87
2022/07/09 08:50:57;;;;;;;16.50;11.60;;;;;;;25.98;53.40;102595.50;5030042;28;20025;-86
2022/07/09 08:53:29;;;;;;;17.98;10.70;;;;;;;26.23;51.50;102581.34;5012705;28;20437;-86
2022/07/09 08:56:07;;;;;;;14.52;9.38;;;;;;;26.66;49.03;102583.22;5010222;28;20030;-87
2022/07/09 08:58:58;;;;;;;13.85;8.38;;;;;;;27.00;51.02;102598.06;4991993;28;20112;-86
2022/07/09 09:01:27;;;;;;;12.25;8.73;;;;;;;26.82;48.95;102571.75;5009252;28;20037;-88
2022/07/09 09:03:53;;;;;;;15.48;9.73;;;;;;;26.48;50.17;102581.66;5011216;28;20087;-88
2022/07/09 09:06:25;;;;;;;18.38;10.88;;;;;;;26.18;50.66;102571.31;5009181;28;20026;-88
2022/07/09 09:09:05;;;;;;;17.10;12.77;;;;;;;26.22;50.87;102594.25;5009034;28;20034;-88
2022/07/09 09:11:31;;;;;;;15.32;11.38;;;;;;;26.40;50.07;102586.81;5010567;28;20068;-88
2022/07/09 09:14:05;;;;;;;18.60;13.10;;;;;;;26.04;50.98;102581.59;5004518;22;20100;-88
2022/07/09 09:17:12;;;;;;;15.55;10.38;;;;;;;25.93;52.33;102587.41;5010005;28;20033;-89
2022/07/09 09:20:06;;;;;;;19.17;13.32;;;;;;;25.72;52.57;102603.69;4961766;28;20377;-88
2022/07/09 09:23:01;;;;;;;27.52;14.45;;;;;;;25.63;52.43;102597.38;5009790;28;20041;-88
2022/07/09 09:25:42;;;;;;;18.23;12.52;;;;;;;25.55;53.15;102587.97;4991971;28;20370;-88
2022/07/09 09:28:20;;;;;;;17.77;12.93;;;;;;;25.41;53.32;102579.84;4993713;28;20169;-89
2022/07/09 09:34:37;;;;;;;17.67;13.30;;;;;;;24.96;55.19;102589.00;4931833;29;20039;-87
2022/07/09 09:37:29;;;;;;;19.65;14.07;;;;;;;25.08;54.69;102582.94;4954961;28;20386;-87
2022/07/09 09:39:55;;;;;;;18.02;13.40;;;;;;;25.15;54.27;102594.28;4993660;28;20592;-88
2022/07/09 09:42:24;;;;;;;16.10;13.52;;;;;;;24.88;54.63;102589.78;4993878;28;20033;-87
2022/07/09 09:44:50;;;;;;;20.60;14.32;;;;;;;24.69;54.86;102595.41;4992827;28;20037;-87
2022/07/09 09:47:20;;;;;;;20.70;13.77;;;;;;;24.52;55.51;102576.94;4993606;28;20030;-87
2022/07/09 09:49:47;;;;;;;18.70;13.32;;;;;;;24.54;55.97;102580.97;4993125;28;20042;-87
2022/07/09 09:52:14;;;;;;;15.70;11.55;;;;;;;24.37;56.11;102580.84;4993050;28;20034;-88
2022/07/09 09:54:42;;;;;;;16.13;11.70;;;;;;;24.06;57.30;102587.03;4991387;28;20034;-89
2022/07/09 09:57:13;;;;;;;15.35;10.90;;;;;;;23.94;56.65;102588.31;4992706;28;20034;-88
2022/07/09 09:59:44;;;;;;;14.65;9.80;;;;;;;23.89;57.84;102582.97;4992425;28;20521;-88
2022/07/09 10:02:10;;;;;;;14.80;10.23;;;;;;;24.00;57.91;102581.66;4992944;28;20077;-88
2022/07/09 10:04:43;;;;;;;13.25;10.38;;;;;;;24.16;57.21;102579.41;4991218;28;20037;-87
2022/07/09 10:07:12;;;;;;;16.25;12.52;;;;;;;24.40;56.38;102581.03;4993925;28;20084;-87
2022/07/09 10:09:38;;;;;;;18.40;12.47;;;;;;;24.45;55.85;102577.38;4993898;28;20038;-87
2022/07/09 10:12:03;;;;;;;16.00;12.23;;;;;;;24.59;55.98;102588.25;4993411;28;20369;-88
2022/07/09 10:14:31;;;;;;;18.88;13.15;;;;;;;24.39;56.75;102582.13;4991920;28;20477;-86
2022/07/09 10:17:08;;;;;;;17.67;13.13;;;;;;;24.47;56.44;102581.41;4993270;28;20101;-87
2022/07/09 10:19:34;;;;;;;21.25;14.07;;;;;;;25.41;54.67;102574.34;4975753;28;20141;-87
2022/07/09 10:22:00;;;;;;;18.27;12.77;;;;;;;26.28;51.90;102568.25;4993443;28;20102;-87
2022/07/09 10:24:25;;;;;;;15.85;11.30;;;;;;;26.76;50.85;102568.31;4992248;28;20113;-87
2022/07/09 10:26:51;;;;;;;20.10;12.77;;;;;;;26.72;50.50;102564.63;4993249;28;20113;-87
2022/07/09 10:29:19;;;;;;;18.17;12.40;;;;;;;26.23;51.37;102570.34;4993004;28;20376;-87
2022/07/09 10:31:46;;;;;;;15.52;11.32;;;;;;;25.47;53.98;102584.09;4992524;28;20026;-87
2022/07/09 10:34:24;;;;;;;16.25;10.32;;;;;;;24.85;56.17;102590.38;4991918;28;20059;-86
2022/07/09 10:37:00;;;;;;;12.65;8.98;;;;;;;24.84;56.13;102583.28;4992322;28;20029;-87
2022/07/09 10:39:25;;;;;;;9.07;7.32;;;;;;;25.36;55.65;102577.25;4992833;28;20034;-87
2022/07/09 10:42:18;;;;;;;11.87;7.30;;;;;;;26.07;52.15;102556.25;4992677;28;20023;-86
2022/07/09 10:44:45;;;;;;;9.02;5.55;;;;;;;25.83;52.30;102569.31;4992124;28;20041;-87
2022/07/09 10:47:10;;;;;;;11.18;6.00;;;;;;;25.38;52.63;102575.81;4992573;28;20381;-87
2022/07/09 10:49:36;;;;;;;8.40;5.93;;;;;;;25.11;54.77;102571.34;4992962;28;20037;-88
2022/07/09 10:52:03;;;;;;;7.13;6.03;;;;;;;24.93;53.69;102576.72;4987106;28;20109;-87
2022/07/09 10:54:28;;;;;;;9.02;6.07;;;;;;;25.19;53.62;102567.00;5010050;28;20595;-86
2022/07/09 10:56:54;;;;;;;6.73;4.50;;;;;;;25.75;52.82;102556.38;5006904;28;20102;-86
2022/07/09 10:59:21;;;;;;;4.65;4.07;;;;;;;26.15;51.89;102559.03;4992330;28;20109;-87
2022/07/09 11:01:46;;;;;;;5.38;4.35;;;;;;;26.36;51.40;102563.88;4989641;28;20378;-87
2022/07/09 11:04:23;;;;;;;5.90;4.83;;;;;;;26.25;50.40;102554.34;4989840;28;20138;-87
2022/07/09 11:06:48;;;;;;;6.43;3.75;;;;;;;26.37;50.14;102559.97;4992396;28;20042;-88
2022/07/09 11:09:15;;;;;;;7.17;3.90;;;;;;;26.29;50.90;102558.06;4997644;28;20029;-90
2022/07/09 11:11:44;;;;;;;8.45;3.97;;;;;;;26.21;50.18;102562.41;5003695;28;20082;-90
2022/07/09 11:14:10;;;;;;;5.38;3.83;;;;;;;26.08;49.97;102566.09;4989135;28;20026;-89
2022/07/09 11:16:36;;;;;;;9.80;3.55;;;;;;;26.37;50.41;102570.19;4992334;28;20042;-88
2022/07/09 11:19:18;;;;;;;6.47;3.17;;;;;;;26.52;50.04;102574.34;4992069;28;20081;-88
2022/07/09 11:21:45;;;;;;;11.77;3.33;;;;;;;26.31;48.57;102575.00;4992211;28;20076;-89
2022/07/09 11:24:23;;;;;;;3.88;3.00;;;;;;;26.29;49.43;102566.31;4991504;28;20033;-88
2022/07/09 11:26:48;;;;;;;5.85;2.80;;;;;;;26.52;48.95;102574.34;4991418;28;20370;-88
2022/07/09 11:29:16;;;;;;;3.57;2.23;;;;;;;26.81;47.83;102570.13;4992239;28;20081;-88
2022/07/09 11:31:49;;;;;;;2.97;2.22;;;;;;;27.54;47.38;102577.47;4991597;28;20026;-88
2022/07/09 11:34:18;;;;;;;3.83;1.88;;;;;;;27.51;45.16;102583.63;4990264;28;20023;-88
2022/07/09 11:36:51;;;;;;;5.78;1.80;;;;;;;26.63;45.91;102583.06;4989969;28;20038;-88
2022/07/09 11:39:33;;;;;;;3.55;1.90;;;;;;;26.40;46.56;102569.50;4991907;28;20042;-88
2022/07/09 11:42:00;;;;;;;1.80;1.70;;;;;;;26.46;47.68;102570.97;4991721;28;20023;-88
2022/07/09 11:44:27;;;;;;;2.55;1.75;;;;;;;26.58;47.53;102570.31;4991136;28;20033;-88
2022/07/09 11:47:00;;;;;;;3.17;1.73;;;;;;;26.55;47.04;102577.28;4991677;28;20438;-88
2022/07/09 11:49:39;;;;;;;1.90;1.75;;;;;;;26.26;46.76;102566.97;4991961;28;20030;-88
2022/07/09 11:52:18;;;;;;;6.90;1.80;;;;;;;26.12;48.36;102569.84;4990793;28;20077;-89
2022/07/09 11:54:59;;;;;;;4.67;1.70;;;;;;;25.74;47.69;102565.75;4991488;28;21007;-88